Time;durP1;ratioP1;P1;durP2;ratioP2;P2;SDS_P1;SDS_P2;PMS_P1;PMS_P2;Temp;Humidity;BMP_temperature;BMP_pressure;BME280_temperature;BME280_humidity;BME280_pressure;Samples;Min_cycle;Max_cycle;Signal;HPM_P1;HPM_P2
2021/11/08 00:01:59;;;;;;;;;;;;;;;8.56;87.39;99642.38;1629836;86;21855;-79
2021/11/08 00:04:25;;;;;;;;;;;;;;;8.49;87.68;99645.29;1634882;86;20200;-80
2021/11/08 00:06:51;;;;;;;;;;;;;;;8.42;88.08;99645.53;1654408;85;20192;-79
2021/11/08 00:09:18;;;;;;;;;;;;;;;8.39;88.27;99635.31;1650267;85;20456;-79
2021/11/08 00:11:44;;;;;;;;;;;;;;;8.36;88.51;99654.04;1654723;85;21195;-79
2021/11/08 00:14:13;;;;;;;;;;;;;;;8.41;88.37;99651.30;1654198;85;20335;-78
2021/11/08 00:21:47;;;;;;;;;;;;;;;8.25;88.69;99654.64;1617879;85;20200;-79
2021/11/08 00:24:14;;;;;;;;;;;;;;;8.22;89.19;99658.90;1652759;84;20588;-79
2021/11/08 00:26:39;;;;;;;;;;;;;;;8.30;88.90;99653.34;1649101;85;20672;-79
2021/11/08 00:29:05;;;;;;;;;;;;;;;8.15;89.74;99664.42;1651577;85;20139;-79
2021/11/08 00:31:31;;;;;;;;;;;;;;;8.18;89.74;99656.72;1652197;85;20223;-79
2021/11/08 00:33:56;;;;;;;;;;;;;;;8.20;89.66;99663.96;1647973;85;20466;-79
2021/11/08 00:36:22;;;;;;;;;;;;;;;8.23;89.50;99665.82;1648779;86;21932;-80
2021/11/08 00:38:50;;;;;;;;;;;;;;;8.25;89.58;99665.67;1650779;85;20185;-79
2021/11/08 00:41:15;;;;;;;;;;;;;;;8.35;89.40;99658.48;1649871;85;20164;-79
2021/11/08 00:43:41;;;;;;;;;;;;;;;8.24;89.60;99670.08;1649240;85;20665;-79
2021/11/08 00:46:08;;;;;;;;;;;;;;;8.21;89.85;99680.09;1651885;85;20158;-80
2021/11/08 00:48:36;;;;;;;;;;;;;;;8.17;90.11;99674.31;1652176;84;21129;-78
2021/11/08 00:51:01;;;;;;;;;;;;;;;8.17;90.20;99680.05;1649531;85;20184;-80
2021/11/08 00:53:27;;;;;;;;;;;;;;;8.35;89.73;99668.20;1654555;85;20705;-78
2021/11/08 00:55:54;;;;;;;;;;;;;;;8.29;90.05;99674.06;1655219;85;20136;-79
2021/11/08 00:58:27;;;;;;;;;;;;;;;8.40;89.54;99671.18;1652894;85;20184;-79
2021/11/08 01:00:47;;;;;;;;;;;;;;;8.41;89.51;99673.66;1651344;85;20157;-79
2021/11/08 01:03:16;;;;;;;;;;;;;;;8.43;89.71;99676.14;1653494;85;20464;-80
2021/11/08 01:05:40;;;;;;;;;;;;;;;8.30;90.38;99677.02;1626186;85;20544;-78
2021/11/08 01:08:06;;;;;;;;;;;;;;;8.36;90.30;99675.09;1595178;88;20198;-79
2021/11/08 01:10:32;;;;;;;;;;;;;;;8.24;90.86;99683.23;1597670;88;20293;-80
2021/11/08 01:12:57;;;;;;;;;;;;;;;8.20;91.28;99678.43;1597782;87;20589;-80
2021/11/08 01:15:23;;;;;;;;;;;;;;;8.18;90.95;99699.62;1595523;88;20129;-80
2021/11/08 01:17:51;;;;;;;;;;;;;;;8.26;91.00;99683.92;1599903;88;20137;-79
2021/11/08 01:20:16;;;;;;;;;;;;;;;8.19;91.41;99688.13;1593704;88;21028;-79
2021/11/08 01:22:41;;;;;;;;;;;;;;;8.19;91.15;99690.77;1596362;88;20183;-79
2021/11/08 01:25:08;;;;;;;;;;;;;;;8.27;90.89;99688.19;1595164;88;21115;-79
2021/11/08 01:27:38;;;;;;;;;;;;;;;8.14;91.16;99682.52;1598263;87;20996;-79
2021/11/08 01:30:08;;;;;;;;;;;;;;;8.13;91.34;99695.31;1596222;88;20573;-79
2021/11/08 01:32:34;;;;;;;;;;;;;;;8.18;91.08;99691.73;1594000;88;20320;-79
2021/11/08 01:35:02;;;;;;;;;;;;;;;8.18;91.08;99689.10;1595392;88;20180;-79
2021/11/08 01:37:30;;;;;;;;;;;;;;;8.10;91.28;99706.14;1594671;88;20168;-79
2021/11/08 01:39:56;;;;;;;;;;;;;;;8.17;91.06;99695.36;1593857;89;20784;-79
2021/11/08 01:42:23;;;;;;;;;;;;;;;8.00;92.32;99694.86;1598539;88;20466;-79
2021/11/08 01:44:48;;;;;;;;;;;;;;;7.95;93.06;99701.06;1594891;88;20286;-78
2021/11/08 01:47:14;;;;;;;;;;;;;;;7.86;93.60;99693.11;1595843;88;20186;-79
2021/11/08 01:49:40;;;;;;;;;;;;;;;7.96;93.66;99694.84;1595569;88;21956;-79
2021/11/08 01:52:07;;;;;;;;;;;;;;;8.02;93.48;99699.50;1598851;88;20151;-78
2021/11/08 01:54:33;;;;;;;;;;;;;;;8.06;93.58;99704.78;1598680;88;20224;-78
2021/11/08 01:56:59;;;;;;;;;;;;;;;7.84;94.22;99677.14;1596302;88;20191;-79
2021/11/08 01:59:25;;;;;;;;;;;;;;;7.97;94.25;99701.73;1597101;88;20215;-80
2021/11/08 02:01:51;;;;;;;;;;;;;;;7.83;94.85;99712.28;1594654;88;21196;-78
2021/11/08 02:04:20;;;;;;;;;;;;;;;7.90;94.97;99711.53;1598072;88;20152;-78
2021/11/08 02:06:46;;;;;;;;;;;;;;;8.08;94.12;99714.67;1616853;87;20249;-77
2021/11/08 02:09:12;;;;;;;;;;;;;;;8.02;94.44;99702.13;1620874;87;20172;-80
2021/11/08 02:11:37;;;;;;;;;;;;;;;8.07;94.26;99702.50;1622507;87;20276;-81
2021/11/08 02:14:03;;;;;;;;;;;;;;;7.98;95.10;99709.97;1625628;87;21120;-78
2021/11/08 02:16:29;;;;;;;;;;;;;;;7.84;95.94;99708.19;1618175;87;20259;-78
2021/11/08 02:18:56;;;;;;;;;;;;;;;7.91;95.78;99711.88;1625212;86;20233;-77
2021/11/08 02:21:22;;;;;;;;;;;;;;;7.89;95.87;99705.95;1619498;87;20184;-78
2021/11/08 02:23:49;;;;;;;;;;;;;;;8.05;95.40;99709.72;1620081;87;20523;-77
2021/11/08 02:26:16;;;;;;;;;;;;;;;7.91;95.75;99726.84;1624428;87;21021;-79
2021/11/08 02:28:44;;;;;;;;;;;;;;;8.06;95.10;99700.83;1613938;87;20212;-79
2021/11/08 02:31:14;;;;;;;;;;;;;;;8.02;95.21;99708.70;1618782;85;20230;-80
2021/11/08 02:33:40;;;;;;;;;;;;;;;8.08;95.08;99712.05;1613848;87;20144;-80
2021/11/08 02:36:06;;;;;;;;;;;;;;;8.00;95.18;99713.27;1621518;87;20517;-81
2021/11/08 02:38:35;;;;;;;;;;;;;;;8.06;95.21;99717.92;1616496;87;21155;-81
2021/11/08 02:41:01;;;;;;;;;;;;;;;8.08;95.09;99719.94;1620834;86;20293;-80
2021/11/08 02:43:27;;;;;;;;;;;;;;;8.13;94.68;99712.41;1624196;87;20600;-80
2021/11/08 02:46:08;;;;;;;;;;;;;;;7.98;95.73;99715.23;1623588;87;20236;-81
2021/11/08 02:48:30;;;;;;;;;;;;;;;7.96;95.83;99718.50;1618444;87;20203;-78
2021/11/08 02:53:33;;;;;;;;;;;;;;;8.11;95.16;99711.75;1594475;87;20607;-79
2021/11/08 02:55:59;;;;;;;;;;;;;;;8.14;95.02;99723.75;1619049;87;20525;-78
2021/11/08 02:58:28;;;;;;;;;;;;;;;8.19;94.71;99727.59;1618052;87;20271;-79
2021/11/08 03:00:54;;;;;;;;;;;;;;;8.18;94.81;99724.61;1616716;87;20162;-78
2021/11/08 03:03:23;;;;;;;;;;;;;;;8.09;94.79;99724.20;1620506;87;21115;-80
2021/11/08 03:05:48;;;;;;;;;;;;;;;8.13;94.84;99742.66;1616179;86;20321;-79
2021/11/08 03:08:14;;;;;;;;;;;;;;;8.17;94.55;99734.81;1635761;86;20127;-79
2021/11/08 03:10:40;;;;;;;;;;;;;;;8.00;95.46;99743.50;1635934;86;20831;-77
2021/11/08 03:13:11;;;;;;;;;;;;;;;8.11;95.13;99735.88;1635692;85;20502;-78
2021/11/08 03:15:52;;;;;;;;;;;;;;;8.02;95.32;99748.96;1633245;85;20215;-79
2021/11/08 03:18:25;;;;;;;;;;;;;;;8.08;95.18;99748.86;1636840;86;20177;-79
2021/11/08 03:20:40;;;;;;;;;;;;;;;8.03;95.45;99745.83;1633178;86;20157;-79
2021/11/08 03:23:07;;;;;;;;;;;;;;;8.08;95.49;99757.57;1639059;86;20181;-79
2021/11/08 03:28:03;;;;;;;;;;;;;;;8.08;95.25;99754.94;1635784;86;20141;-79
2021/11/08 03:30:36;;;;;;;;;;;;;;;8.07;95.33;99766.92;1638973;86;20402;-80
2021/11/08 03:32:57;;;;;;;;;;;;;;;8.13;94.95;99765.51;1635955;86;20297;-78
2021/11/08 03:35:24;;;;;;;;;;;;;;;8.09;95.20;99764.49;1632843;86;20831;-79
2021/11/08 03:37:51;;;;;;;;;;;;;;;8.04;95.43;99781.69;1634627;86;20226;-78
2021/11/08 03:40:22;;;;;;;;;;;;;;;8.08;95.42;99772.53;1634749;86;20624;-79
2021/11/08 03:42:48;;;;;;;;;;;;;;;8.13;95.12;99774.22;1632858;86;20999;-80
2021/11/08 03:45:14;;;;;;;;;;;;;;;8.04;95.56;99771.16;1635657;86;21080;-78
2021/11/08 03:47:40;;;;;;;;;;;;;;;8.17;94.72;99784.78;1632759;86;20536;-78
2021/11/08 03:50:07;;;;;;;;;;;;;;;8.09;95.38;99793.89;1636370;86;20337;-79
2021/11/08 03:52:33;;;;;;;;;;;;;;;8.22;94.47;99781.70;1634527;86;21950;-80
2021/11/08 03:54:59;;;;;;;;;;;;;;;8.22;94.21;99786.47;1633051;86;20206;-79
2021/11/08 03:57:25;;;;;;;;;;;;;;;8.31;93.60;99796.56;1633216;86;20204;-79
2021/11/08 03:59:50;;;;;;;;;;;;;;;8.24;93.67;99781.88;1627658;86;20151;-78
2021/11/08 04:02:17;;;;;;;;;;;;;;;8.23;93.79;99799.97;1633770;86;21467;-78
2021/11/08 04:04:42;;;;;;;;;;;;;;;8.20;94.13;99792.38;1633820;86;21093;-78
2021/11/08 04:07:08;;;;;;;;;;;;;;;8.20;94.44;99800.27;1632647;85;20158;-78
2021/11/08 04:09:34;;;;;;;;;;;;;;;8.21;94.84;99797.95;1633575;85;20189;-81
2021/11/08 04:12:00;;;;;;;;;;;;;;;8.24;94.69;99798.97;1634105;86;21038;-77
2021/11/08 04:14:26;;;;;;;;;;;;;;;8.25;94.97;99795.37;1634542;86;20205;-78
2021/11/08 04:16:52;;;;;;;;;;;;;;;8.34;94.81;99801.52;1638062;86;21170;-76
2021/11/08 04:19:18;;;;;;;;;;;;;;;8.23;95.16;99791.23;1637533;86;20212;-80
2021/11/08 04:21:44;;;;;;;;;;;;;;;8.16;95.70;99794.95;1629626;86;20182;-81
2021/11/08 04:24:10;;;;;;;;;;;;;;;8.19;95.71;99789.40;1633171;86;20752;-80
2021/11/08 04:26:36;;;;;;;;;;;;;;;8.26;95.05;99786.52;1635517;86;20140;-81
2021/11/08 04:29:03;;;;;;;;;;;;;;;8.24;95.20;99796.34;1632017;86;21213;-79
2021/11/08 04:31:33;;;;;;;;;;;;;;;8.34;94.61;99796.27;1635468;86;20202;-80
2021/11/08 04:34:04;;;;;;;;;;;;;;;8.18;95.13;99794.31;1636814;86;20202;-80
2021/11/08 04:36:57;;;;;;;;;;;;;;;8.23;94.82;99796.03;1634553;86;20522;-80
2021/11/08 04:41:44;;;;;;;;;;;;;;;8.34;94.31;99803.34;1633554;86;20165;-80
2021/11/08 05:21:57;;;;;;;;;;;;;;;8.41;91.16;99843.87;1615595;87;20166;-81
2021/11/08 05:32:22;;;;;;;;;;;;;;;8.34;91.23;99861.22;1616890;88;20193;-83
2021/11/08 05:34:48;;;;;;;;;;;;;;;8.30;91.19;99862.48;1617998;87;21156;-80
2021/11/08 05:37:14;;;;;;;;;;;;;;;8.29;91.07;99877.95;1615148;86;20136;-82
2021/11/08 05:39:50;;;;;;;;;;;;;;;8.33;90.92;99869.61;1619827;86;20471;-80
2021/11/08 05:42:12;;;;;;;;;;;;;;;8.38;90.76;99858.14;1613424;87;20182;-81
2021/11/08 05:44:39;;;;;;;;;;;;;;;8.35;90.51;99869.46;1617319;86;20209;-82
2021/11/08 05:47:05;;;;;;;;;;;;;;;8.39;90.24;99865.06;1620026;86;21248;-84
2021/11/08 05:49:31;;;;;;;;;;;;;;;8.37;90.05;99877.52;1618561;87;20251;-81
2021/11/08 05:51:57;;;;;;;;;;;;;;;8.36;90.15;99865.37;1612188;86;20376;-80
2021/11/08 05:54:22;;;;;;;;;;;;;;;8.27;90.55;99882.86;1617957;86;20229;-82
2021/11/08 06:50:59;;;;;;;;;;;;;;;8.42;91.13;99949.44;1627542;86;20161;-78
2021/11/08 06:53:23;;;;;;;;;;;;;;;8.43;91.18;99946.70;1625106;86;20108;-79
2021/11/08 06:55:54;;;;;;;;;;;;;;;8.42;91.17;99950.75;1631849;86;20182;-81
2021/11/08 06:58:18;;;;;;;;;;;;;;;8.42;91.51;99958.65;1624601;86;20211;-81
2021/11/08 07:00:45;;;;;;;;;;;;;;;8.30;92.46;99963.77;1626763;86;20155;-81
2021/11/08 07:03:12;;;;;;;;;;;;;;;8.37;92.60;99966.16;1626492;87;20188;-80
2021/11/08 07:05:37;;;;;;;;;;;;;;;8.30;94.12;99964.61;1626066;86;21849;-81
2021/11/08 07:08:03;;;;;;;;;;;;;;;8.41;94.84;99960.46;1636172;86;20136;-80
2021/11/08 07:10:29;;;;;;;;;;;;;;;8.32;95.76;99962.66;1645093;86;20234;-80
2021/11/08 07:12:55;;;;;;;;;;;;;;;8.17;96.33;99971.53;1643201;86;20250;-79
2021/11/08 07:15:23;;;;;;;;;;;;;;;8.20;96.54;99960.72;1639900;84;20212;-80
2021/11/08 07:17:49;;;;;;;;;;;;;;;8.37;95.67;99960.91;1643270;86;21108;-80
2021/11/08 07:20:15;;;;;;;;;;;;;;;8.37;95.03;99963.53;1640960;86;20198;-80
2021/11/08 07:22:40;;;;;;;;;;;;;;;8.41;94.70;99955.20;1639537;85;20202;-80
2021/11/08 07:25:07;;;;;;;;;;;;;;;8.44;94.21;99955.44;1637466;86;20156;-81
2021/11/08 07:27:33;;;;;;;;;;;;;;;8.45;93.89;99966.28;1639520;86;20240;-81
2021/11/08 07:29:59;;;;;;;;;;;;;;;8.41;93.41;99960.96;1634796;86;21201;-78
2021/11/08 07:32:25;;;;;;;;;;;;;;;8.50;92.70;99969.33;1639799;86;20195;-82
2021/11/08 07:34:51;;;;;;;;;;;;;;;8.62;92.26;99964.20;1639887;86;20186;-79
2021/11/08 07:37:17;;;;;;;;;;;;;;;8.58;92.53;99964.14;1642292;86;20188;-79
2021/11/08 07:39:43;;;;;;;;;;;;;;;8.48;93.01;99968.63;1640443;85;20830;-79
2021/11/08 07:42:09;;;;;;;;;;;;;;;8.55;92.89;99974.97;1647079;86;21121;-79
2021/11/08 07:44:34;;;;;;;;;;;;;;;8.55;93.65;99984.67;1643237;86;20192;-81
2021/11/08 07:47:00;;;;;;;;;;;;;;;8.50;94.14;99990.38;1641457;85;20135;-80
2021/11/08 07:49:25;;;;;;;;;;;;;;;8.43;94.74;99984.84;1633874;85;20119;-83
2021/11/08 07:51:51;;;;;;;;;;;;;;;8.37;95.54;99972.74;1639699;86;21069;-79
2021/11/08 07:54:17;;;;;;;;;;;;;;;8.37;95.73;99988.03;1639801;85;21283;-79
2021/11/08 07:56:47;;;;;;;;;;;;;;;8.45;95.82;99986.02;1639302;86;20384;-81
2021/11/08 07:59:10;;;;;;;;;;;;;;;8.35;96.83;99994.44;1643705;85;20147;-82
2021/11/08 08:01:35;;;;;;;;;;;;;;;8.53;96.56;99997.98;1636889;86;20147;-80
2021/11/08 08:04:01;;;;;;;;;;;;;;;8.39;98.09;100006.30;1638500;85;20444;-80
2021/11/08 08:06:26;;;;;;;;;;;;;;;8.37;98.81;100004.31;1635464;85;21128;-77
2021/11/08 08:08:52;;;;;;;;;;;;;;;8.35;99.75;100022.06;1649635;84;20220;-77
2021/11/08 08:11:18;;;;;;;;;;;;;;;8.20;100.00;100020.37;1648072;85;20799;-80
2021/11/08 08:13:44;;;;;;;;;;;;;;;8.19;100.00;100010.84;1655597;85;20185;-81
2021/11/08 08:16:14;;;;;;;;;;;;;;;8.12;100.00;100018.46;1651581;85;20147;-78
2021/11/08 08:18:39;;;;;;;;;;;;;;;8.15;100.00;100032.64;1648493;85;20157;-79
2021/11/08 08:21:05;;;;;;;;;;;;;;;8.05;100.00;100027.91;1651703;85;20128;-79
2021/11/08 08:23:31;;;;;;;;;;;;;;;8.07;100.00;100018.89;1644401;85;20180;-81
2021/11/08 08:25:57;;;;;;;;;;;;;;;8.22;100.00;100039.00;1651329;85;20267;-82
2021/11/08 08:28:23;;;;;;;;;;;;;;;8.12;100.00;100030.30;1628345;86;20231;-81
2021/11/08 08:30:49;;;;;;;;;;;;;;;8.16;100.00;100036.94;1654417;85;21165;-81
2021/11/08 08:33:14;;;;;;;;;;;;;;;8.17;100.00;100029.41;1652297;84;20291;-79
2021/11/08 08:35:40;;;;;;;;;;;;;;;8.09;100.00;100039.78;1649792;85;20717;-79
2021/11/08 08:38:08;;;;;;;;;;;;;;;8.22;100.00;100036.37;1651072;85;20263;-79
2021/11/08 08:40:34;;;;;;;;;;;;;;;8.22;100.00;100036.37;1651495;85;20692;-80
2021/11/08 08:42:59;;;;;;;;;;;;;;;8.32;100.00;100040.77;1647584;85;21155;-79
2021/11/08 08:45:25;;;;;;;;;;;;;;;8.34;100.00;100044.07;1649116;85;20769;-79
2021/11/08 08:47:51;;;;;;;;;;;;;;;8.25;100.00;100036.58;1653049;84;20164;-79
2021/11/08 08:50:16;;;;;;;;;;;;;;;8.23;100.00;100046.39;1653638;85;20172;-78
2021/11/08 08:52:42;;;;;;;;;;;;;;;8.32;100.00;100052.61;1652216;84;20724;-77
2021/11/08 08:55:07;;;;;;;;;;;;;;;8.18;100.00;100049.45;1650715;85;21109;-82
2021/11/08 08:57:33;;;;;;;;;;;;;;;8.31;100.00;100045.67;1631359;86;20149;-78
2021/11/08 08:59:59;;;;;;;;;;;;;;;8.23;100.00;100053.82;1633828;86;21394;-83
2021/11/08 09:02:24;;;;;;;;;;;;;;;8.32;100.00;100051.29;1633721;85;20597;-80
2021/11/08 09:04:50;;;;;;;;;;;;;;;8.30;100.00;100047.48;1608942;87;20191;-78
2021/11/08 09:07:16;;;;;;;;;;;;;;;8.44;100.00;100059.38;1633556;86;21096;-80
2021/11/08 09:09:42;;;;;;;;;;;;;;;8.40;100.00;100068.49;1625819;86;20244;-80
2021/11/08 09:12:08;;;;;;;;;;;;;;;8.33;100.00;100072.66;1623647;86;20259;-80
2021/11/08 09:14:33;;;;;;;;;;;;;;;8.30;100.00;100076.42;1628531;86;20272;-80
2021/11/08 09:17:01;;;;;;;;;;;;;;;8.45;100.00;100074.17;1623676;86;20929;-81
2021/11/08 09:19:27;;;;;;;;;;;;;;;8.27;100.00;100070.95;1632580;86;20099;-80
2021/11/08 09:21:52;;;;;;;;;;;;;;;8.37;100.00;100085.88;1599416;88;20183;-79
2021/11/08 09:24:19;;;;;;;;;;;;;;;8.40;100.00;100081.65;1636877;86;20692;-79
2021/11/08 09:26:44;;;;;;;;;;;;;;;8.32;100.00;100079.73;1645590;85;20178;-80
2021/11/08 09:29:10;;;;;;;;;;;;;;;8.49;100.00;100077.37;1643786;85;20173;-79
2021/11/08 09:31:36;;;;;;;;;;;;;;;8.36;100.00;100093.42;1645020;86;21181;-80
2021/11/08 09:34:08;;;;;;;;;;;;;;;8.44;100.00;100097.53;1642661;85;20145;-81
2021/11/08 09:36:32;;;;;;;;;;;;;;;8.26;100.00;100093.45;1650024;85;20173;-79
2021/11/08 09:38:59;;;;;;;;;;;;;;;8.29;100.00;100090.55;1630829;86;20642;-80
2021/11/08 09:41:33;;;;;;;;;;;;;;;8.31;100.00;100091.72;1645577;86;20126;-79
2021/11/08 09:44:01;;;;;;;;;;;;;;;8.32;100.00;100102.59;1644200;86;21143;-80
2021/11/08 09:46:26;;;;;;;;;;;;;;;8.32;100.00;100103.91;1645961;85;20220;-80
2021/11/08 09:48:52;;;;;;;;;;;;;;;8.44;100.00;100097.04;1640307;85;20263;-81
2021/11/08 09:51:18;;;;;;;;;;;;;;;8.30;100.00;100108.47;1643080;86;20176;-81
2021/11/08 09:53:43;;;;;;;;;;;;;;;8.48;100.00;100104.15;1644669;85;20153;-79
2021/11/08 09:56:09;;;;;;;;;;;;;;;8.32;100.00;100102.59;1649368;85;21267;-80
2021/11/08 09:58:35;;;;;;;;;;;;;;;8.40;100.00;100107.97;1648587;86;20291;-81
2021/11/08 10:01:07;;;;;;;;;;;;;;;8.39;100.00;100111.55;1641952;85;20141;-79
2021/11/08 10:03:33;;;;;;;;;;;;;;;8.37;100.00;100115.64;1644249;86;20203;-80
2021/11/08 10:05:59;;;;;;;;;;;;;;;8.49;100.00;100124.24;1644066;85;20206;-79
2021/11/08 10:08:27;;;;;;;;;;;;;;;8.29;100.00;100118.17;1647118;85;21089;-81
2021/11/08 10:10:54;;;;;;;;;;;;;;;8.31;100.00;100121.97;1651455;85;20177;-78
2021/11/08 10:13:23;;;;;;;;;;;;;;;8.42;100.00;100127.91;1657279;85;20186;-79
2021/11/08 10:15:51;;;;;;;;;;;;;;;8.47;100.00;100124.03;1654726;85;20877;-81
2021/11/08 10:18:18;;;;;;;;;;;;;;;8.31;100.00;100125.92;1656155;85;20251;-79
2021/11/08 10:20:45;;;;;;;;;;;;;;;8.40;100.00;100114.54;1654812;85;21323;-78
2021/11/08 10:23:12;;;;;;;;;;;;;;;8.46;100.00;100124.53;1654559;85;20207;-79
2021/11/08 10:25:39;;;;;;;;;;;;;;;8.37;100.00;100133.25;1657579;85;20155;-80
2021/11/08 10:28:11;;;;;;;;;;;;;;;8.45;100.00;100133.38;1654969;85;20258;-79
2021/11/08 10:30:37;;;;;;;;;;;;;;;8.51;100.00;100133.31;1647571;85;20221;-80
2021/11/08 10:33:14;;;;;;;;;;;;;;;8.45;100.00;100145.23;1652649;85;21106;-81
2021/11/08 10:35:43;;;;;;;;;;;;;;;8.51;100.00;100141.20;1651915;85;20182;-80
2021/11/08 10:38:13;;;;;;;;;;;;;;;8.58;100.00;100138.36;1603299;87;34134;-78
2021/11/08 10:40:51;;;;;;;;;;;;;;;8.57;100.00;100136.19;1619467;86;20203;-80
2021/11/08 10:43:32;;;;;;;;;;;;;;;8.53;100.00;100132.20;1623060;86;20495;-80
2021/11/08 10:46:00;;;;;;;;;;;;;;;8.50;100.00;100135.59;1603525;88;20979;-80
2021/11/08 10:48:30;;;;;;;;;;;;;;;8.49;100.00;100137.41;1649238;85;20195;-81
2021/11/08 10:50:56;;;;;;;;;;;;;;;8.59;100.00;100138.21;1652012;85;20202;-81
2021/11/08 10:53:22;;;;;;;;;;;;;;;8.63;100.00;100132.98;1652815;84;20240;-83
2021/11/08 10:55:50;;;;;;;;;;;;;;;8.67;100.00;100135.33;1651023;86;20312;-77
2021/11/08 10:58:15;;;;;;;;;;;;;;;8.56;100.00;100131.92;1651889;85;21095;-79
2021/11/08 11:00:50;;;;;;;;;;;;;;;8.64;100.00;100141.73;1654663;85;20257;-79
2021/11/08 11:03:16;;;;;;;;;;;;;;;8.71;100.00;100147.23;1650028;85;20174;-79
2021/11/08 11:05:43;;;;;;;;;;;;;;;8.53;100.00;100154.58;1653726;85;21334;-80
2021/11/08 11:08:15;;;;;;;;;;;;;;;8.57;100.00;100154.61;1652463;85;20244;-78
2021/11/08 11:10:53;;;;;;;;;;;;;;;8.55;100.00;100156.57;1643667;85;20145;-80
2021/11/08 11:13:20;;;;;;;;;;;;;;;8.58;100.00;100156.28;1646816;85;20333;-79
2021/11/08 11:15:46;;;;;;;;;;;;;;;8.60;100.00;100151.70;1649423;85;20094;-80
2021/11/08 11:18:13;;;;;;;;;;;;;;;8.70;100.00;100140.30;1645294;86;21167;-81
2021/11/08 11:20:42;;;;;;;;;;;;;;;8.77;100.00;100149.30;1646205;85;20224;-79
2021/11/08 11:23:13;;;;;;;;;;;;;;;8.79;100.00;100152.61;1609787;87;20214;-77
2021/11/08 11:25:38;;;;;;;;;;;;;;;8.82;100.00;100161.53;1615997;86;20178;-80
2021/11/08 11:28:05;;;;;;;;;;;;;;;8.86;100.00;100150.25;1607047;87;20192;-78
2021/11/08 11:30:37;;;;;;;;;;;;;;;8.81;100.00;100152.00;1588656;88;20128;-81
2021/11/08 11:33:15;;;;;;;;;;;;;;;8.75;100.00;100149.94;1604085;87;20360;-81
2021/11/08 11:35:44;;;;;;;;;;;;;;;8.66;100.00;100145.53;1580403;88;20995;-79
2021/11/08 11:38:28;;;;;;;;;;;;;;;8.80;100.00;100153.78;1633141;86;20326;-81
2021/11/08 11:40:57;;;;;;;;;;;;;;;8.85;100.00;100162.56;1633314;86;21106;-79
2021/11/08 11:43:29;;;;;;;;;;;;;;;8.80;100.00;100158.23;1633311;86;20202;-81
2021/11/08 11:45:55;;;;;;;;;;;;;;;8.62;100.00;100166.88;1631215;86;20514;-81
2021/11/08 11:48:24;;;;;;;;;;;;;;;8.53;100.00;100161.63;1632546;86;20986;-80
2021/11/08 11:50:49;;;;;;;;;;;;;;;8.72;100.00;100156.81;1634888;86;20198;-81
2021/11/08 11:53:15;;;;;;;;;;;;;;;8.67;100.00;100162.97;1634486;86;20139;-80
2021/11/08 11:55:42;;;;;;;;;;;;;;;8.54;100.00;100168.06;1634091;87;21320;-80
2021/11/08 11:58:08;;;;;;;;;;;;;;;8.68;100.00;100184.38;1635497;86;20187;-79
2021/11/08 12:00:36;;;;;;;;;;;;;;;8.67;100.00;100182.72;1631793;86;20995;-80
2021/11/08 12:03:02;;;;;;;;;;;;;;;8.73;100.00;100181.67;1636392;86;20361;-80
2021/11/08 12:05:29;;;;;;;;;;;;;;;8.70;100.00;100181.11;1633890;86;20188;-79
2021/11/08 12:07:56;;;;;;;;;;;;;;;8.79;100.00;100176.30;1633318;86;20216;-81
2021/11/08 12:10:22;;;;;;;;;;;;;;;8.72;100.00;100176.55;1629982;87;20189;-80
2021/11/08 12:12:47;;;;;;;;;;;;;;;8.69;100.00;100176.84;1632841;86;21179;-80
2021/11/08 12:15:16;;;;;;;;;;;;;;;8.69;100.00;100187.38;1634746;86;20146;-82
2021/11/08 12:17:43;;;;;;;;;;;;;;;8.82;100.00;100177.83;1635147;86;20598;-79
2021/11/08 12:20:13;;;;;;;;;;;;;;;8.83;100.00;100172.42;1638892;86;20118;-80
2021/11/08 12:22:40;;;;;;;;;;;;;;;8.81;100.00;100180.96;1630217;86;20188;-80
2021/11/08 12:25:09;;;;;;;;;;;;;;;8.87;100.00;100189.60;1633847;86;21957;-81
2021/11/08 12:27:43;;;;;;;;;;;;;;;8.91;100.00;100179.59;1631852;86;21154;-81
2021/11/08 12:30:16;;;;;;;;;;;;;;;8.94;100.00;100179.31;1636346;86;20212;-79
2021/11/08 12:32:47;;;;;;;;;;;;;;;8.89;100.00;100182.38;1635790;86;20777;-80
2021/11/08 12:35:15;;;;;;;;;;;;;;;8.90;100.00;100202.48;1634447;86;20207;-80
2021/11/08 12:37:40;;;;;;;;;;;;;;;8.87;100.00;100189.60;1634872;86;21087;-84
2021/11/08 12:40:07;;;;;;;;;;;;;;;8.84;100.00;100189.04;1636726;86;20238;-80
2021/11/08 12:42:44;;;;;;;;;;;;;;;8.80;100.00;100189.82;1635659;86;20162;-79
2021/11/08 12:45:18;;;;;;;;;;;;;;;8.83;100.00;100193.48;1633477;86;20248;-81
2021/11/08 12:47:45;;;;;;;;;;;;;;;8.94;100.00;100188.03;1636300;86;20198;-81
2021/11/08 12:50:11;;;;;;;;;;;;;;;8.87;100.00;100202.77;1632378;86;21920;-80
2021/11/08 12:52:39;;;;;;;;;;;;;;;8.82;100.00;100202.34;1636586;86;20818;-79
2021/11/08 12:55:08;;;;;;;;;;;;;;;8.90;100.00;100210.38;1635318;86;21108;-80
2021/11/08 12:57:35;;;;;;;;;;;;;;;8.96;100.00;100203.22;1636724;86;20210;-79
2021/11/08 13:00:19;;;;;;;;;;;;;;;9.10;100.00;100205.84;1637650;86;20230;-77
2021/11/08 13:02:54;;;;;;;;;;;;;;;8.98;100.00;100201.27;1632509;86;21125;-80
2021/11/08 13:05:27;;;;;;;;;;;;;;;9.00;100.00;100212.16;1633164;86;20160;-79
2021/11/08 13:07:55;;;;;;;;;;;;;;;8.84;100.00;100220.64;1630254;86;20356;-79
2021/11/08 13:10:25;;;;;;;;;;;;;;;8.80;100.00;100210.89;1630778;86;20192;-82
2021/11/08 13:12:52;;;;;;;;;;;;;;;8.91;100.00;100209.39;1631702;86;20098;-79
2021/11/08 13:15:20;;;;;;;;;;;;;;;8.92;100.00;100218.95;1611866;87;21022;-77
2021/11/08 13:17:52;;;;;;;;;;;;;;;8.80;100.00;100219.61;1633282;86;20210;-77
2021/11/08 13:20:20;;;;;;;;;;;;;;;9.03;100.00;100214.50;1630903;86;20269;-80
2021/11/08 13:22:51;;;;;;;;;;;;;;;8.88;100.00;100218.89;1632651;86;20191;-80
2021/11/08 13:25:20;;;;;;;;;;;;;;;8.91;100.00;100218.61;1635652;86;20185;-78
2021/11/08 13:27:48;;;;;;;;;;;;;;;8.94;100.00;100224.91;1631352;86;20988;-79
2021/11/08 13:30:14;;;;;;;;;;;;;;;8.93;100.00;100220.63;1631268;86;20975;-78
2021/11/08 13:32:40;;;;;;;;;;;;;;;8.98;100.00;100233.37;1630221;85;20194;-78
2021/11/08 13:35:15;;;;;;;;;;;;;;;8.98;100.00;100223.66;1631785;86;20611;-79
2021/11/08 13:37:41;;;;;;;;;;;;;;;8.91;100.00;100223.87;1635177;86;20823;-80
2021/11/08 13:40:16;;;;;;;;;;;;;;;8.90;100.00;100232.77;1634861;86;21149;-78
2021/11/08 13:42:42;;;;;;;;;;;;;;;8.94;100.00;100231.48;1637769;86;20149;-79
2021/11/08 13:45:08;;;;;;;;;;;;;;;8.81;100.00;100237.58;1632831;86;20153;-78
2021/11/08 13:47:46;;;;;;;;;;;;;;;8.94;100.00;100230.17;1633684;86;20172;-80
2021/11/08 13:50:17;;;;;;;;;;;;;;;8.92;100.00;100229.49;1635205;86;20154;-78
2021/11/08 13:52:44;;;;;;;;;;;;;;;9.06;100.00;100232.62;1633240;86;21244;-78
2021/11/08 13:55:11;;;;;;;;;;;;;;;9.09;100.00;100239.77;1632129;86;20177;-79
2021/11/08 13:57:42;;;;;;;;;;;;;;;9.05;100.00;100241.52;1633596;86;20183;-79
2021/11/08 14:00:10;;;;;;;;;;;;;;;9.06;100.00;100245.79;1633556;86;20202;-79
2021/11/08 14:02:37;;;;;;;;;;;;;;;9.05;100.00;100246.78;1637908;86;20606;-79
2021/11/08 14:05:04;;;;;;;;;;;;;;;9.01;100.00;100233.55;1634759;86;20999;-80
2021/11/08 14:07:29;;;;;;;;;;;;;;;9.05;100.00;100251.55;1635936;86;20516;-78
2021/11/08 14:09:56;;;;;;;;;;;;;;;9.09;100.00;100253.41;1630056;86;20462;-78
2021/11/08 14:12:23;;;;;;;;;;;;;;;8.97;100.00;100253.59;1621300;87;20273;-81
2021/11/08 14:14:49;;;;;;;;;;;;;;;9.02;100.00;100252.34;1618887;86;20154;-78
2021/11/08 14:17:17;;;;;;;;;;;;;;;9.12;100.00;100253.97;1619198;87;21274;-79
2021/11/08 14:19:45;;;;;;;;;;;;;;;9.11;100.00;100249.66;1625237;87;20225;-80
2021/11/08 14:22:11;;;;;;;;;;;;;;;9.15;100.00;100247.56;1622337;87;20218;-80
2021/11/08 14:24:38;;;;;;;;;;;;;;;9.24;100.00;100238.79;1622292;86;20191;-79
2021/11/08 14:27:04;;;;;;;;;;;;;;;9.09;100.00;100245.50;1618377;87;20344;-82
2021/11/08 14:29:31;;;;;;;;;;;;;;;9.12;100.00;100253.12;1619950;87;21274;-80
2021/11/08 14:32:03;;;;;;;;;;;;;;;9.07;100.00;100250.09;1606450;87;20200;-80
2021/11/08 14:34:34;;;;;;;;;;;;;;;9.08;100.00;100253.08;1621420;87;20235;-80
2021/11/08 14:36:59;;;;;;;;;;;;;;;9.08;100.00;100259.67;1624647;85;21004;-81
2021/11/08 14:39:27;;;;;;;;;;;;;;;9.14;100.00;100256.45;1623132;87;20401;-82